createdAt,value
2019-05-19T00:01:36.848Z,3.30
2019-05-19T00:04:40.340Z,3.22
2019-05-19T00:07:43.836Z,3.50
2019-05-19T00:10:47.368Z,3.50
2019-05-19T00:13:51.875Z,3.10
2019-05-19T00:16:55.384Z,3.17
2019-05-19T00:19:59.894Z,3.20
2019-05-19T00:23:03.542Z,3.22
2019-05-19T00:26:07.098Z,3.50
2019-05-19T00:29:10.840Z,3.10
2019-05-19T00:32:14.308Z,2.90
2019-05-19T00:35:17.830Z,3.15
2019-05-19T00:38:21.325Z,3.20
2019-05-19T00:41:24.830Z,3.58
2019-05-19T00:44:28.331Z,2.70
2019-05-19T00:47:31.821Z,3.20
2019-05-19T00:50:36.364Z,2.98
2019-05-19T00:53:40.861Z,3.25
2019-05-19T00:56:44.411Z,3.00
2019-05-19T00:59:47.869Z,3.35
2019-05-19T01:02:51.469Z,3.33
2019-05-19T01:05:55.084Z,3.20
2019-05-19T01:08:58.589Z,3.17
2019-05-19T01:12:03.104Z,3.45
2019-05-19T01:15:07.393Z,3.40
2019-05-19T01:18:10.948Z,3.30
2019-05-19T01:21:15.444Z,3.33
2019-05-19T01:24:18.943Z,3.10
2019-05-19T01:27:23.481Z,3.05
2019-05-19T01:30:27.159Z,3.20
2019-05-19T01:33:30.747Z,3.45
2019-05-19T01:36:34.374Z,3.17
2019-05-19T01:39:38.009Z,3.00
2019-05-19T01:42:41.616Z,3.25
2019-05-19T01:45:45.096Z,3.15
2019-05-19T01:48:49.619Z,3.55
2019-05-19T01:51:53.143Z,3.17
2019-05-19T01:54:56.615Z,3.15
2019-05-19T01:58:00.120Z,3.20
2019-05-19T02:01:03.667Z,3.55
2019-05-19T02:04:07.110Z,3.05
2019-05-19T02:07:10.613Z,3.10
2019-05-19T02:10:14.124Z,3.50
2019-05-19T02:13:17.634Z,3.37
2019-05-19T02:16:21.187Z,3.58
2019-05-19T02:19:26.280Z,3.02
2019-05-19T02:22:30.792Z,3.20
2019-05-19T02:25:34.531Z,3.17
2019-05-19T02:28:37.996Z,3.27
2019-05-19T02:31:41.498Z,2.90
2019-05-19T02:34:45.018Z,3.27
2019-05-19T02:37:48.519Z,3.25
2019-05-19T02:40:54.848Z,3.12
2019-05-19T02:43:58.364Z,3.10
2019-05-19T02:47:01.803Z,3.25
2019-05-19T02:50:05.728Z,3.17
2019-05-19T02:53:09.289Z,2.90
2019-05-19T02:56:12.783Z,3.60
2019-05-19T02:59:16.312Z,3.27
2019-05-19T03:02:19.768Z,3.75
2019-05-19T03:05:23.297Z,3.35
2019-05-19T03:08:26.807Z,3.50
2019-05-19T03:11:30.279Z,3.10
2019-05-19T03:14:33.792Z,3.27
2019-05-19T03:17:38.310Z,3.17
2019-05-19T03:20:42.839Z,3.52
2019-05-19T03:23:46.349Z,3.15
2019-05-19T03:26:49.923Z,2.92
2019-05-19T03:29:57.473Z,3.55
2019-05-19T03:33:02.362Z,3.33
2019-05-19T03:36:05.885Z,3.22
2019-05-19T03:39:11.418Z,3.02
2019-05-19T03:42:16.976Z,3.25
2019-05-19T03:45:20.493Z,3.10
2019-05-19T03:48:25.007Z,3.20
2019-05-19T03:51:31.625Z,3.40
2019-05-19T03:54:34.668Z,3.25
2019-05-19T03:57:38.167Z,3.20
2019-05-19T04:00:41.673Z,3.17
2019-05-19T04:03:45.165Z,3.30
2019-05-19T04:06:48.662Z,3.45
2019-05-19T04:09:52.161Z,3.60
2019-05-19T04:12:56.703Z,3.10
2019-05-19T04:16:00.189Z,3.08
2019-05-19T04:19:04.713Z,3.37
2019-05-19T04:22:09.239Z,3.27
2019-05-19T04:25:13.009Z,3.58
2019-05-19T04:28:16.453Z,3.40
2019-05-19T04:31:19.955Z,3.40
2019-05-19T04:34:23.449Z,2.67
2019-05-19T04:37:26.947Z,3.45
2019-05-19T04:40:30.450Z,3.08
2019-05-19T04:43:33.958Z,3.42
2019-05-19T04:46:38.475Z,3.08
2019-05-19T04:49:44.023Z,3.52
2019-05-19T04:52:47.530Z,3.20
2019-05-19T04:55:52.152Z,3.70
2019-05-19T04:58:55.782Z,3.08
2019-05-19T05:01:59.248Z,3.00
2019-05-19T05:05:03.819Z,3.40
2019-05-19T05:08:07.318Z,3.42
2019-05-19T05:11:10.801Z,3.42
2019-05-19T05:14:14.301Z,3.33
2019-05-19T05:17:17.776Z,3.30
2019-05-19T05:20:21.282Z,2.95
2019-05-19T05:23:24.789Z,3.10
2019-05-19T05:26:28.284Z,3.27
2019-05-19T05:29:31.788Z,3.20
2019-05-19T05:32:35.291Z,2.90
2019-05-19T05:35:38.997Z,3.22
2019-05-19T05:38:43.516Z,2.85
2019-05-19T05:41:48.050Z,3.10
2019-05-19T05:44:52.575Z,3.50
2019-05-19T05:47:56.099Z,3.33
2019-05-19T05:51:00.606Z,2.85
2019-05-19T05:54:04.088Z,3.22
2019-05-19T05:57:08.627Z,3.50
2019-05-19T06:00:15.585Z,2.92
2019-05-19T06:03:17.479Z,2.83
2019-05-19T06:06:20.968Z,3.30
2019-05-19T06:09:25.492Z,2.87
2019-05-19T06:12:29.006Z,3.30
2019-05-19T06:15:32.528Z,2.98
2019-05-19T06:18:35.988Z,3.15
2019-05-19T06:21:39.865Z,3.42
2019-05-19T06:24:43.409Z,3.02
2019-05-19T06:27:46.925Z,2.90
2019-05-19T06:30:50.406Z,3.77
2019-05-19T06:33:54.916Z,2.98
2019-05-19T06:36:58.452Z,3.17
2019-05-19T06:40:01.933Z,3.00
2019-05-19T06:43:05.436Z,2.85
2019-05-19T06:46:09.974Z,3.47
2019-05-19T06:49:13.379Z,3.47
2019-05-19T06:52:16.984Z,3.10
2019-05-19T06:55:20.463Z,3.58
2019-05-19T06:58:23.999Z,3.25
2019-05-19T07:01:27.465Z,3.20
2019-05-19T07:04:31.992Z,3.60
2019-05-19T07:07:35.487Z,3.47
2019-05-19T07:10:40.012Z,2.90
2019-05-19T07:13:43.549Z,3.30
2019-05-19T07:16:47.022Z,3.25
2019-05-19T07:19:50.531Z,3.33
2019-05-19T07:22:55.099Z,3.30
2019-05-19T07:25:58.551Z,3.60
2019-05-19T07:29:02.047Z,3.37
2019-05-19T07:32:05.547Z,3.50
2019-05-19T07:35:09.108Z,3.15
2019-05-19T07:38:12.560Z,3.52
2019-05-19T07:41:16.069Z,3.33
2019-05-19T07:44:20.575Z,3.45
2019-05-19T07:47:25.110Z,3.50
2019-05-19T07:50:31.661Z,3.70
2019-05-19T07:53:42.638Z,3.20
2019-05-19T07:56:40.534Z,3.33
2019-05-19T07:59:46.057Z,3.47
2019-05-19T08:02:50.592Z,3.50
2019-05-19T08:05:56.922Z,3.10
2019-05-19T08:08:59.433Z,3.30
2019-05-19T08:12:04.007Z,3.40
2019-05-19T08:15:07.529Z,3.40
2019-05-19T08:18:10.971Z,3.45
2019-05-19T08:21:14.466Z,3.52
2019-05-19T08:24:17.979Z,3.15
2019-05-19T08:27:21.640Z,3.00
2019-05-19T08:30:25.177Z,3.30
2019-05-19T08:33:29.741Z,3.50
2019-05-19T08:36:33.204Z,3.33
2019-05-19T08:39:36.721Z,3.30
2019-05-19T08:42:40.222Z,3.08
2019-05-19T08:45:43.733Z,3.30
2019-05-19T08:48:47.217Z,3.30
2019-05-19T08:51:50.702Z,3.33
2019-05-19T08:54:54.208Z,3.22
2019-05-19T08:57:59.755Z,3.12
2019-05-19T09:01:03.253Z,3.45
2019-05-19T09:04:06.842Z,3.30
2019-05-19T09:07:10.255Z,3.42
2019-05-19T09:10:13.920Z,4.20
2019-05-19T09:13:17.622Z,4.03
2019-05-19T09:16:26.919Z,4.00
2019-05-19T09:19:31.451Z,3.72
2019-05-19T09:22:34.932Z,4.45
2019-05-19T09:25:38.429Z,4.15
2019-05-19T09:28:41.932Z,4.37
2019-05-19T09:31:45.446Z,4.40
2019-05-19T09:34:49.070Z,3.58
2019-05-19T09:37:53.668Z,4.10
2019-05-19T09:40:57.284Z,3.98
2019-05-19T09:44:01.908Z,4.42
2019-05-19T09:47:06.581Z,4.83
2019-05-19T09:50:10.129Z,4.28
2019-05-19T09:53:13.643Z,4.33
2019-05-19T09:56:17.130Z,4.35
2019-05-19T09:59:20.643Z,4.53
2019-05-19T10:02:26.177Z,4.45
2019-05-19T10:05:29.704Z,4.33
2019-05-19T10:08:37.142Z,4.60
2019-05-19T10:12:00.259Z,4.45
2019-05-19T10:15:03.834Z,5.00
2019-05-19T10:18:07.458Z,4.95
2019-05-19T10:21:10.942Z,4.20
2019-05-19T10:24:16.492Z,4.28
2019-05-19T10:27:21.864Z,4.60
2019-05-19T10:30:25.546Z,4.80
2019-05-19T10:33:30.110Z,4.60
2019-05-19T10:36:34.590Z,4.50
2019-05-19T10:39:39.121Z,4.60
2019-05-19T10:42:42.633Z,4.85
2019-05-19T10:45:47.724Z,4.45
2019-05-19T10:48:53.307Z,4.42
2019-05-19T10:51:56.705Z,3.98
2019-05-19T10:55:00.308Z,4.70
2019-05-19T10:58:04.832Z,4.50
2019-05-19T11:01:08.339Z,4.50
2019-05-19T11:04:11.866Z,4.28
2019-05-19T11:07:18.412Z,4.47
2019-05-19T11:10:21.923Z,4.30
2019-05-19T11:13:25.441Z,4.67
2019-05-19T11:16:30.959Z,4.50
2019-05-19T11:19:34.462Z,4.00
2019-05-19T11:22:38.000Z,4.33
2019-05-19T11:25:51.055Z,4.70
2019-05-19T11:28:46.822Z,4.40
2019-05-19T11:31:50.301Z,4.35
2019-05-19T11:34:54.848Z,4.10
2019-05-19T11:37:58.334Z,4.08
2019-05-19T11:41:02.858Z,4.45
2019-05-19T11:44:06.371Z,4.60
2019-05-19T11:47:09.887Z,4.25
2019-05-19T11:50:14.388Z,4.25
2019-05-19T11:53:17.970Z,4.45
2019-05-19T11:56:22.428Z,4.03
2019-05-19T11:59:25.918Z,4.20
2019-05-19T12:02:29.433Z,3.77
2019-05-19T12:05:33.005Z,4.15
2019-05-19T12:08:38.470Z,4.12
2019-05-19T12:11:41.979Z,4.08
2019-05-19T12:14:47.535Z,4.55
2019-05-19T12:17:51.016Z,3.58
2019-05-19T12:21:00.453Z,3.98
2019-05-19T12:24:05.117Z,3.83
2019-05-19T12:27:08.687Z,3.30
2019-05-19T12:30:16.282Z,3.60
2019-05-19T12:33:19.782Z,3.50
2019-05-19T12:36:23.284Z,4.00
2019-05-19T12:39:27.837Z,3.80
2019-05-19T12:42:31.317Z,4.05
2019-05-19T12:45:34.842Z,3.60
2019-05-19T12:48:38.351Z,3.33
2019-05-19T12:51:41.951Z,3.58
2019-05-19T12:54:51.527Z,3.62
2019-05-19T12:57:56.008Z,3.22
2019-05-19T13:00:59.519Z,3.85
2019-05-19T13:04:04.009Z,3.45
2019-05-19T13:07:07.508Z,3.42
2019-05-19T13:10:12.052Z,3.30
2019-05-19T13:13:17.587Z,3.50
2019-05-19T13:16:21.089Z,3.67
2019-05-19T13:19:24.642Z,3.60
2019-05-19T13:22:28.100Z,3.58
2019-05-19T13:25:31.597Z,3.05
2019-05-19T13:28:36.117Z,3.05
2019-05-19T13:31:39.628Z,3.22
2019-05-19T13:34:43.110Z,3.10
2019-05-19T13:37:46.622Z,3.20
2019-05-19T13:40:51.156Z,3.40
2019-05-19T13:43:59.570Z,3.30
2019-05-19T13:47:02.875Z,3.17
2019-05-19T13:50:06.425Z,3.45
2019-05-19T13:53:09.872Z,3.20
2019-05-19T13:56:13.366Z,2.87
2019-05-19T13:59:17.883Z,3.30
2019-05-19T14:02:27.119Z,3.00
2019-05-19T14:05:30.621Z,2.92
2019-05-19T14:08:34.131Z,3.10
2019-05-19T14:11:39.671Z,3.22
2019-05-19T14:14:43.173Z,2.98
2019-05-19T14:17:46.678Z,3.17
2019-05-19T14:20:50.176Z,3.10
2019-05-19T14:23:54.699Z,3.15
2019-05-19T14:26:58.217Z,3.05
2019-05-19T14:30:02.807Z,3.50
2019-05-19T14:33:07.255Z,3.33
2019-05-19T14:36:12.350Z,3.22
2019-05-19T14:39:16.014Z,2.72
2019-05-19T14:42:38.360Z,2.83
2019-05-19T14:45:41.939Z,2.72
2019-05-19T14:48:45.469Z,2.42
2019-05-19T14:51:49.086Z,3.17
2019-05-19T14:54:52.649Z,3.20
2019-05-19T14:57:57.185Z,2.83
2019-05-19T15:01:00.674Z,3.58
2019-05-19T15:04:04.181Z,2.80
2019-05-19T15:07:07.682Z,2.40
2019-05-19T15:10:11.170Z,2.80
2019-05-19T15:13:14.712Z,2.77
2019-05-19T15:16:18.180Z,2.60
2019-05-19T15:19:21.684Z,2.75
2019-05-19T15:22:25.208Z,3.05
2019-05-19T15:25:31.755Z,2.40
2019-05-19T15:28:35.259Z,2.80
2019-05-19T15:31:39.799Z,2.30
2019-05-19T15:34:43.286Z,2.52
2019-05-19T15:37:46.803Z,2.58
2019-05-19T15:40:52.351Z,2.30
2019-05-19T15:43:56.920Z,2.58
2019-05-19T15:47:00.384Z,2.25
2019-05-19T15:50:04.185Z,2.40
2019-05-19T15:53:07.869Z,2.50
2019-05-19T15:56:11.543Z,2.72
2019-05-19T15:59:16.025Z,2.33
2019-05-19T16:02:19.535Z,2.83
2019-05-19T16:05:23.021Z,2.50
2019-05-19T16:08:26.511Z,2.80
2019-05-19T16:11:31.036Z,2.72
2019-05-19T16:14:34.536Z,2.60
2019-05-19T16:17:38.078Z,2.70
2019-05-19T16:20:42.516Z,2.65
2019-05-19T16:23:46.064Z,2.77
2019-05-19T16:26:49.580Z,2.10
2019-05-19T16:29:53.147Z,2.40
2019-05-19T16:32:58.619Z,2.20
2019-05-19T16:36:02.111Z,2.50
2019-05-19T16:39:07.402Z,2.35
2019-05-19T16:42:10.971Z,2.58
2019-05-19T16:45:14.467Z,2.33
2019-05-19T16:48:17.994Z,2.40
2019-05-19T16:51:22.500Z,2.17
2019-05-19T16:54:30.436Z,2.42
2019-05-19T16:57:33.949Z,2.20
2019-05-19T17:00:39.545Z,2.02
2019-05-19T17:03:45.301Z,2.00
2019-05-19T17:06:48.790Z,2.02
2019-05-19T17:09:52.314Z,2.05
2019-05-19T17:12:56.823Z,2.20
2019-05-19T17:16:01.355Z,2.02
2019-05-19T17:19:04.856Z,2.12
2019-05-19T17:22:08.362Z,2.17
2019-05-19T17:25:12.880Z,2.00
2019-05-19T17:28:16.388Z,2.20
2019-05-19T17:31:19.895Z,2.20
2019-05-19T17:34:24.427Z,2.00
2019-05-19T17:37:28.922Z,2.27
2019-05-19T17:40:33.466Z,2.08
2019-05-19T17:43:36.968Z,2.20
2019-05-19T17:46:40.640Z,2.12
2019-05-19T17:49:44.177Z,2.15
2019-05-19T17:52:47.772Z,2.20
2019-05-19T17:55:51.181Z,2.20
2019-05-19T17:58:54.724Z,1.92
2019-05-19T18:01:59.189Z,1.90
2019-05-19T18:05:03.731Z,1.60
2019-05-19T18:08:07.239Z,1.98
2019-05-19T18:11:11.745Z,1.95
2019-05-19T18:14:15.252Z,1.65
2019-05-19T18:17:19.012Z,2.02
2019-05-19T18:20:24.079Z,2.25
2019-05-19T18:23:27.806Z,2.22
2019-05-19T18:26:31.305Z,2.00
2019-05-19T18:29:34.815Z,1.87
2019-05-19T18:32:40.423Z,2.08
2019-05-19T18:35:43.852Z,2.40
2019-05-19T18:38:47.374Z,1.90
2019-05-19T18:41:50.854Z,1.95
2019-05-19T18:44:54.614Z,2.00
2019-05-19T18:47:59.155Z,2.00
2019-05-19T18:51:04.658Z,1.92
2019-05-19T18:54:08.170Z,2.00
2019-05-19T18:57:11.763Z,2.00
2019-05-19T19:00:20.828Z,1.80
2019-05-19T19:03:24.400Z,1.75
2019-05-19T19:06:30.121Z,1.82
2019-05-19T19:09:33.640Z,1.87
2019-05-19T19:12:37.134Z,1.65
2019-05-19T19:15:40.630Z,2.00
2019-05-19T19:18:44.131Z,2.10
2019-05-19T19:21:47.643Z,1.90
2019-05-19T19:24:53.228Z,2.05
2019-05-19T19:27:56.669Z,1.72
2019-05-19T19:31:00.184Z,2.02
2019-05-19T19:34:03.754Z,2.08
2019-05-19T19:37:07.204Z,1.98
2019-05-19T19:40:10.695Z,2.02
2019-05-19T19:43:14.199Z,1.85
2019-05-19T19:46:22.859Z,2.27
2019-05-19T19:49:26.321Z,1.82
2019-05-19T19:52:29.924Z,2.00
2019-05-19T19:55:34.338Z,1.75
2019-05-19T19:58:38.861Z,1.85
2019-05-19T20:01:42.388Z,2.12
2019-05-19T20:04:51.815Z,1.95
2019-05-19T20:07:57.386Z,1.87
2019-05-19T20:11:00.856Z,1.85
2019-05-19T20:14:05.401Z,1.70
2019-05-19T20:17:08.876Z,1.82
2019-05-19T20:20:12.382Z,1.80
2019-05-19T20:23:15.884Z,1.90
2019-05-19T20:26:19.384Z,1.80
2019-05-19T20:29:23.906Z,1.82
2019-05-19T20:32:28.562Z,1.50
2019-05-19T20:35:35.222Z,1.60
2019-05-19T20:38:38.708Z,1.82
2019-05-19T20:41:42.207Z,1.52
2019-05-19T20:44:45.716Z,1.70
2019-05-19T20:47:49.266Z,1.22
2019-05-19T20:50:52.762Z,1.47
2019-05-19T20:53:56.262Z,1.82
2019-05-19T20:57:01.761Z,1.80
2019-05-19T21:00:06.647Z,1.57
2019-05-19T21:03:10.191Z,1.40
2019-05-19T21:06:13.715Z,1.70
2019-05-19T21:09:18.229Z,1.85
2019-05-19T21:12:21.792Z,1.65
2019-05-19T21:15:26.248Z,1.67
2019-05-19T21:18:29.755Z,1.50
2019-05-19T21:21:34.289Z,1.55
2019-05-19T21:24:37.780Z,1.47
2019-05-19T21:27:41.283Z,1.77
2019-05-19T21:30:45.794Z,1.52
2019-05-19T21:33:49.319Z,1.52
2019-05-19T21:36:53.828Z,1.72
2019-05-19T21:39:57.330Z,1.70
2019-05-19T21:43:01.886Z,1.60
2019-05-19T21:46:06.592Z,1.72
2019-05-19T21:49:10.302Z,1.30
2019-05-19T21:52:13.791Z,1.30
2019-05-19T21:55:18.325Z,1.27
2019-05-19T21:58:21.737Z,1.50
2019-05-19T22:01:25.346Z,1.80
2019-05-19T22:04:28.836Z,1.30
2019-05-19T22:07:41.963Z,1.45
2019-05-19T22:10:47.495Z,1.30
2019-05-19T22:13:52.034Z,1.50
2019-05-19T22:16:56.560Z,1.47
2019-05-19T22:20:00.067Z,1.30
2019-05-19T22:23:03.548Z,1.47
2019-05-19T22:26:07.050Z,1.40
2019-05-19T22:29:12.607Z,1.55
2019-05-19T22:32:16.089Z,1.40
2019-05-19T22:35:19.600Z,1.15
2019-05-19T22:38:24.129Z,1.60
2019-05-19T22:41:27.610Z,1.37
2019-05-19T22:44:31.168Z,1.32
2019-05-19T22:47:36.689Z,1.50
2019-05-19T22:50:40.184Z,1.50
2019-05-19T22:53:43.675Z,1.40
2019-05-19T22:56:48.208Z,1.57
2019-05-19T22:59:51.703Z,1.50
2019-05-19T23:02:57.256Z,1.20
2019-05-19T23:06:00.746Z,1.50
2019-05-19T23:09:05.135Z,1.20
2019-05-19T23:12:08.592Z,1.35
2019-05-19T23:15:12.250Z,1.50
2019-05-19T23:18:15.800Z,1.30
2019-05-19T23:21:20.319Z,1.20
2019-05-19T23:24:25.893Z,1.30
2019-05-19T23:27:29.351Z,1.40
2019-05-19T23:30:39.013Z,1.20
2019-05-19T23:33:42.512Z,1.50
2019-05-19T23:36:48.046Z,1.50
2019-05-19T23:39:54.119Z,1.30
2019-05-19T23:42:56.896Z,1.60
2019-05-19T23:46:00.421Z,1.40
2019-05-19T23:49:05.948Z,1.50
2019-05-19T23:52:09.446Z,1.20
2019-05-19T23:55:13.933Z,1.20
2019-05-19T23:58:17.494Z,1.40
